FNBG

Benguela Airport

Benguela, Angola
METAR FNBG 120800Z 00000KT CAVOK 26/20 Q1014
Observed Flight Rules
Dec-12 @ 08:00 UTC (2 hours ago) Visual Flight Rules
Visibility Clouds
10,000+ meters
  • Clear skies
Temperatures Readings
Current 26°C / 79°F
Dewpoint 20°C / 68°F
Humidity 70%
Altimeter 29.94" Hg
Pressure 1014 hPa
Elevation 36
METAR FNBG 120800Z 00000KT CAVOK 26/20 Q1014
Observed Flight Rules
Dec-12 @ 08:00 UTC
(2 hours ago)
VFR
Clouds
  • Clear skies
Temperature Dewpoint
26°C / 79°F 20°C / 68°F
Humidity Altimeter Pressure
70% 29.94" Hg 1014 hPa